Time;durP1;ratioP1;P1;durP2;ratioP2;P2;SDS_P1;SDS_P2;PMS_P1;PMS_P2;Temp;Humidity;BMP_temperature;BMP_pressure;BME280_temperature;BME280_humidity;BME280_pressure;Samples;Min_cycle;Max_cycle;Signal;HPM_P1;HPM_P2
2022/10/08 00:00:10;;;;;;;3.35;2.63;;;18.90;62.90;;;;;;6277933;22;20216;-81
2022/10/08 00:02:36;;;;;;;2.60;2.40;;;18.90;63.00;;;;;;6278174;22;20133;-81
2022/10/08 00:05:02;;;;;;;2.78;2.50;;;18.90;62.90;;;;;;6250790;22;20144;-79
2022/10/08 00:07:29;;;;;;;2.75;2.33;;;18.80;62.90;;;;;;6277740;22;20221;-81
2022/10/08 00:09:55;;;;;;;3.17;2.60;;;18.80;62.90;;;;;;6174464;22;20603;-81
2022/10/08 00:12:22;;;;;;;3.00;2.60;;;18.80;62.90;;;;;;6245513;23;20212;-80
2022/10/08 00:14:49;;;;;;;2.50;2.30;;;18.80;62.90;;;;;;6193812;23;20185;-80
2022/10/08 00:17:16;;;;;;;3.15;2.85;;;18.90;63.00;;;;;;6169909;23;20180;-81
2022/10/08 00:19:43;;;;;;;3.15;2.80;;;18.80;62.90;;;;;;6194451;23;20177;-81
2022/10/08 00:22:10;;;;;;;3.08;2.80;;;18.90;63.00;;;;;;6194141;23;20154;-80
2022/10/08 00:24:38;;;;;;;2.95;2.67;;;18.80;63.00;;;;;;6194210;23;20149;-80
2022/10/08 00:27:05;;;;;;;2.63;2.42;;;18.80;63.00;;;;;;6195036;23;20156;-80
2022/10/08 00:29:32;;;;;;;2.80;2.60;;;18.90;63.00;;;;;;6169326;23;20237;-81
2022/10/08 00:31:59;;;;;;;2.67;2.38;;;18.80;63.00;;;;;;6194273;23;20207;-80
2022/10/08 00:34:26;;;;;;;2.85;2.42;;;18.80;62.90;;;;;;6194282;23;20191;-80
2022/10/08 00:36:54;;;;;;;2.50;2.30;;;18.80;62.90;;;;;;6169336;23;20156;-81
2022/10/08 00:39:22;;;;;;;2.75;2.55;;;18.80;63.00;;;;;;6194598;23;20208;-80
2022/10/08 00:41:51;;;;;;;2.80;2.60;;;18.80;63.00;;;;;;6169941;23;20156;-81
2022/10/08 00:44:50;;;;;;;2.58;2.38;;;18.80;63.00;;;;;;6220901;23;20577;-79
2022/10/08 00:47:28;;;;;;;2.50;2.30;;;18.80;63.00;;;;;;6246559;22;20624;-80
2022/10/08 00:50:06;;;;;;;2.58;2.20;;;18.90;63.00;;;;;;6245512;23;20129;-80
2022/10/08 00:52:35;;;;;;;3.47;2.60;;;18.80;62.90;;;;;;6247129;22;20569;-81
2022/10/08 00:55:05;;;;;;;3.08;2.50;;;18.90;63.00;;;;;;6246564;22;20165;-81
2022/10/08 00:57:32;;;;;;;2.92;2.30;;;18.80;62.90;;;;;;6245265;23;20180;-81
2022/10/08 00:59:59;;;;;;;2.58;2.38;;;18.80;62.90;;;;;;6219926;23;20149;-79
2022/10/08 01:02:26;;;;;;;2.50;2.30;;;18.80;63.00;;;;;;6244605;23;20134;-81
2022/10/08 01:04:51;;;;;;;2.95;2.65;;;18.80;63.00;;;;;;6246899;23;20208;-80
2022/10/08 01:07:24;;;;;;;3.05;2.60;;;18.80;63.10;;;;;;6246413;23;20212;-80
2022/10/08 01:10:30;;;;;;;2.92;2.63;;;18.80;63.10;;;;;;6246790;22;20144;-80
2022/10/08 01:13:16;;;;;;;2.45;2.25;;;18.80;63.10;;;;;;6275693;22;20540;-81
2022/10/08 01:15:51;;;;;;;3.55;2.50;;;18.80;63.00;;;;;;6198726;22;20156;-80
2022/10/08 01:18:50;;;;;;;2.60;2.40;;;18.80;62.90;;;;;;6202769;22;20464;-81
2022/10/08 01:21:26;;;;;;;3.97;2.50;;;18.80;62.90;;;;;;6223822;22;20152;-80
2022/10/08 01:25:31;;;;;;;2.60;2.40;;;18.80;63.00;;;;;;6201051;22;20152;-80
2022/10/08 01:27:20;;;;;;;2.70;2.50;;;18.90;63.10;;;;;;6208388;22;20160;-81
2022/10/08 01:29:47;;;;;;;3.10;2.60;;;18.80;63.00;;;;;;6200055;22;20153;-81
2022/10/08 01:32:18;;;;;;;2.75;2.55;;;18.80;63.00;;;;;;6198661;22;20167;-81
2022/10/08 01:34:46;;;;;;;2.70;2.50;;;18.90;63.10;;;;;;6175973;22;20278;-82
2022/10/08 01:37:18;;;;;;;2.50;2.30;;;18.80;63.00;;;;;;6174897;22;20153;-80
2022/10/08 01:39:44;;;;;;;2.78;2.58;;;18.80;63.00;;;;;;6175129;22;20149;-81
2022/10/08 01:42:11;;;;;;;2.70;2.50;;;18.80;63.00;;;;;;6174110;22;20152;-80
2022/10/08 01:44:41;;;;;;;2.83;2.50;;;18.80;63.10;;;;;;6198910;22;20167;-80
2022/10/08 01:47:10;;;;;;;2.60;2.40;;;18.70;63.10;;;;;;6174701;22;20161;-81
2022/10/08 01:49:55;;;;;;;2.63;2.40;;;18.80;63.10;;;;;;6150170;22;20164;-80
2022/10/08 01:52:25;;;;;;;2.55;2.35;;;18.80;63.10;;;;;;6200050;22;20222;-80
2022/10/08 01:54:54;;;;;;;2.72;2.50;;;18.80;63.20;;;;;;6199561;22;20184;-80
2022/10/08 01:57:20;;;;;;;3.10;2.65;;;18.80;63.10;;;;;;6250055;22;20137;-79
2022/10/08 01:59:52;;;;;;;3.13;2.83;;;18.80;63.20;;;;;;6277072;22;20177;-80
2022/10/08 02:02:21;;;;;;;2.88;2.47;;;18.80;63.20;;;;;;6175453;22;20153;-80
2022/10/08 02:04:48;;;;;;;2.80;2.60;;;18.80;63.20;;;;;;6249486;22;20159;-80
2022/10/08 02:07:17;;;;;;;2.72;2.53;;;18.80;63.20;;;;;;6249560;22;20448;-80
2022/10/08 02:09:45;;;;;;;2.60;2.40;;;18.80;63.20;;;;;;6276792;22;20622;-80
2022/10/08 02:12:11;;;;;;;2.53;2.30;;;18.70;63.20;;;;;;6276310;22;20666;-81
2022/10/08 02:14:41;;;;;;;3.30;2.40;;;18.70;63.30;;;;;;6249478;22;20604;-80
2022/10/08 02:17:36;;;;;;;2.80;2.50;;;18.70;63.30;;;;;;6199633;22;20160;-83
2022/10/08 02:20:25;;;;;;;2.58;2.20;;;18.70;63.30;;;;;;6249655;22;20161;-81
2022/10/08 02:23:12;;;;;;;2.47;2.28;;;18.80;63.30;;;;;;6254926;22;20216;-81
2022/10/08 02:25:48;;;;;;;2.72;2.50;;;18.80;63.20;;;;;;6276610;22;20129;-81
2022/10/08 02:28:18;;;;;;;3.38;2.60;;;18.80;63.20;;;;;;6276569;22;20139;-80
2022/10/08 02:30:51;;;;;;;2.75;2.40;;;18.80;63.20;;;;;;6276535;22;20129;-80
2022/10/08 02:33:25;;;;;;;2.72;2.30;;;18.70;63.20;;;;;;6224492;22;20162;-79
2022/10/08 02:35:52;;;;;;;2.65;2.30;;;18.80;63.20;;;;;;6249394;22;20183;-80
2022/10/08 02:38:39;;;;;;;2.80;2.60;;;18.70;63.30;;;;;;6249633;22;20148;-80
2022/10/08 02:41:06;;;;;;;2.65;2.45;;;18.80;63.30;;;;;;6249830;22;20172;-81
2022/10/08 02:43:33;;;;;;;2.58;2.38;;;18.70;63.30;;;;;;6199833;22;20157;-81
2022/10/08 02:46:03;;;;;;;2.67;2.40;;;18.70;63.30;;;;;;6276485;22;20137;-81
2022/10/08 02:48:30;;;;;;;3.03;2.45;;;18.80;63.40;;;;;;6249481;22;20133;-81
2022/10/08 02:51:00;;;;;;;3.00;2.70;;;18.70;63.40;;;;;;6276541;22;20137;-80
2022/10/08 02:53:27;;;;;;;2.58;2.38;;;18.70;63.30;;;;;;6174603;22;20620;-83
2022/10/08 02:56:14;;;;;;;2.80;2.58;;;18.70;63.40;;;;;;6276614;22;20569;-81
2022/10/08 02:58:41;;;;;;;2.80;2.60;;;18.70;63.30;;;;;;6224090;22;20148;-80
2022/10/08 03:01:30;;;;;;;2.55;2.35;;;18.80;63.40;;;;;;6276425;22;20601;-80
2022/10/08 03:04:00;;;;;;;2.67;2.30;;;18.70;63.30;;;;;;6250086;22;20141;-80
2022/10/08 03:06:26;;;;;;;2.85;2.30;;;18.70;63.30;;;;;;6249728;22;20140;-83
2022/10/08 03:08:54;;;;;;;2.40;2.20;;;18.70;63.40;;;;;;6276468;22;20143;-81
2022/10/08 03:11:19;;;;;;;2.50;2.30;;;18.70;63.40;;;;;;6276101;22;20268;-80
2022/10/08 03:13:47;;;;;;;2.63;2.30;;;18.70;63.40;;;;;;6249625;22;20200;-79
2022/10/08 03:16:15;;;;;;;2.40;2.20;;;18.80;63.50;;;;;;6249138;22;20133;-79
2022/10/08 03:18:41;;;;;;;2.50;2.30;;;18.70;63.40;;;;;;6223820;22;20144;-81
2022/10/08 03:21:07;;;;;;;2.95;2.53;;;18.70;63.40;;;;;;6276674;22;20472;-80
2022/10/08 03:23:33;;;;;;;2.63;2.30;;;18.70;63.40;;;;;;6224081;22;20145;-80
2022/10/08 03:25:59;;;;;;;2.60;2.40;;;18.70;63.40;;;;;;6278022;22;20144;-81
2022/10/08 03:28:29;;;;;;;2.70;2.50;;;18.70;63.40;;;;;;6251210;22;20167;-80
2022/10/08 03:30:55;;;;;;;2.97;2.25;;;18.80;63.50;;;;;;6200203;22;20227;-80
2022/10/08 03:33:22;;;;;;;3.03;2.50;;;18.70;63.40;;;;;;6251338;22;20530;-80
2022/10/08 03:35:51;;;;;;;2.70;2.50;;;18.70;63.40;;;;;;6278037;22;20145;-80
2022/10/08 03:38:17;;;;;;;3.67;2.58;;;18.70;63.40;;;;;;6200104;22;20153;-81
2022/10/08 03:40:44;;;;;;;2.42;2.22;;;18.70;64.30;;;;;;6226258;22;20137;-80
2022/10/08 03:43:10;;;;;;;2.47;2.28;;;18.70;63.50;;;;;;6250921;22;20125;-80
2022/10/08 03:45:36;;;;;;;2.53;2.33;;;18.70;63.50;;;;;;6278004;22;20136;-80
2022/10/08 03:48:02;;;;;;;3.72;2.45;;;18.70;63.50;;;;;;6251123;22;20137;-80
2022/10/08 03:50:28;;;;;;;2.65;2.45;;;18.70;63.60;;;;;;6277945;22;20133;-80
2022/10/08 03:52:58;;;;;;;2.70;2.50;;;18.70;63.60;;;;;;6278430;22;20158;-81
2022/10/08 03:55:24;;;;;;;2.80;2.50;;;18.70;63.60;;;;;;6175384;22;20267;-80
2022/10/08 03:57:51;;;;;;;2.75;2.45;;;18.70;63.60;;;;;;6277884;22;20210;-79
2022/10/08 04:00:17;;;;;;;2.60;2.38;;;18.70;63.60;;;;;;6278276;22;20140;-80
2022/10/08 04:02:47;;;;;;;2.83;2.38;;;18.70;63.60;;;;;;6277890;22;20137;-80
2022/10/08 04:05:13;;;;;;;2.60;2.40;;;18.70;63.60;;;;;;6277702;22;20211;-81
2022/10/08 04:07:39;;;;;;;2.72;2.50;;;18.70;63.60;;;;;;6277852;22;20129;-80
2022/10/08 04:10:06;;;;;;;2.92;2.50;;;18.70;63.60;;;;;;6277768;22;20191;-81
2022/10/08 04:12:31;;;;;;;2.60;2.38;;;18.70;63.60;;;;;;6250123;22;20672;-80
2022/10/08 04:14:57;;;;;;;2.70;2.50;;;18.70;63.70;;;;;;6278229;22;20173;-81
2022/10/08 04:17:24;;;;;;;2.42;2.22;;;18.70;63.80;;;;;;6277949;22;20499;-80
2022/10/08 04:19:51;;;;;;;2.50;2.30;;;18.70;63.60;;;;;;6278350;22;20467;-81
2022/10/08 04:22:18;;;;;;;2.83;2.45;;;18.70;63.60;;;;;;6277945;22;20202;-80
2022/10/08 04:24:44;;;;;;;2.75;2.50;;;18.70;63.60;;;;;;6277683;22;20137;-82
2022/10/08 04:27:10;;;;;;;2.80;2.58;;;18.70;63.60;;;;;;6277861;22;20145;-81
2022/10/08 04:29:36;;;;;;;2.28;2.08;;;18.70;63.60;;;;;;6277875;22;20274;-81
2022/10/08 04:32:02;;;;;;;2.75;2.30;;;18.70;63.60;;;;;;6250235;22;20141;-80
2022/10/08 04:34:28;;;;;;;2.70;2.50;;;18.70;63.60;;;;;;6277537;22;20239;-80
2022/10/08 04:36:55;;;;;;;2.58;2.38;;;18.70;63.70;;;;;;6277403;22;20133;-80
2022/10/08 04:39:21;;;;;;;3.20;2.50;;;18.70;63.60;;;;;;6250770;22;20485;-80
2022/10/08 04:41:46;;;;;;;2.50;2.30;;;18.70;63.70;;;;;;6277449;22;20140;-82
2022/10/08 04:44:12;;;;;;;2.95;2.63;;;18.70;63.80;;;;;;6225067;22;20144;-80
2022/10/08 04:46:38;;;;;;;2.75;2.55;;;18.70;63.80;;;;;;6277582;22;20472;-80
2022/10/08 04:49:04;;;;;;;3.22;2.40;;;18.70;63.80;;;;;;6277363;22;20469;-80
2022/10/08 04:51:30;;;;;;;2.95;2.42;;;18.70;63.80;;;;;;6250711;22;20556;-80
2022/10/08 04:53:56;;;;;;;2.50;2.30;;;18.60;63.80;;;;;;6277329;22;20167;-80
2022/10/08 04:56:25;;;;;;;2.65;2.40;;;18.70;63.80;;;;;;6225008;22;20584;-81
2022/10/08 04:58:53;;;;;;;2.40;2.20;;;18.70;63.80;;;;;;6277299;22;20156;-80
2022/10/08 05:01:20;;;;;;;2.55;2.35;;;18.70;63.80;;;;;;6225090;22;20195;-81
2022/10/08 05:03:47;;;;;;;2.55;2.35;;;18.70;63.80;;;;;;6277267;22;20212;-81
2022/10/08 05:06:18;;;;;;;2.60;2.40;;;18.70;63.90;;;;;;6224953;22;20496;-80
2022/10/08 05:08:45;;;;;;;2.45;2.20;;;18.70;63.80;;;;;;6277000;22;20158;-79
2022/10/08 05:11:12;;;;;;;2.67;2.20;;;18.70;63.80;;;;;;6277098;22;20173;-80
2022/10/08 05:13:39;;;;;;;3.03;2.30;;;18.70;63.80;;;;;;6249811;22;20616;-81
2022/10/08 05:16:06;;;;;;;2.30;2.10;;;18.70;63.80;;;;;;6250214;22;20165;-80
2022/10/08 05:18:32;;;;;;;4.43;2.25;;;18.70;63.80;;;;;;6277033;22;20632;-80
2022/10/08 05:21:03;;;;;;;2.50;2.30;;;18.70;63.70;;;;;;6276928;22;20129;-81
2022/10/08 05:23:29;;;;;;;2.28;2.08;;;18.70;63.70;;;;;;6249878;22;20132;-80
2022/10/08 05:25:54;;;;;;;2.90;2.60;;;18.70;63.80;;;;;;6224755;22;20145;-80
2022/10/08 05:28:20;;;;;;;2.85;2.65;;;18.70;63.70;;;;;;6250101;22;20564;-80
2022/10/08 05:30:46;;;;;;;2.42;2.20;;;18.70;63.60;;;;;;6276956;22;20471;-80
2022/10/08 05:33:11;;;;;;;2.75;2.50;;;18.70;63.70;;;;;;6277353;22;20136;-80
2022/10/08 05:35:37;;;;;;;2.30;2.10;;;18.70;63.70;;;;;;6249672;22;20173;-81
2022/10/08 05:38:03;;;;;;;2.45;2.25;;;18.70;63.70;;;;;;6276845;22;20442;-80
2022/10/08 05:40:29;;;;;;;2.67;2.30;;;18.70;63.80;;;;;;6276887;22;20183;-81
2022/10/08 05:42:55;;;;;;;2.70;2.50;;;18.70;63.80;;;;;;6276712;22;20132;-81
2022/10/08 05:45:22;;;;;;;2.70;2.50;;;18.70;63.80;;;;;;6249000;22;20172;-81
2022/10/08 05:47:49;;;;;;;2.55;2.35;;;18.70;63.90;;;;;;6172622;22;20156;-79
2022/10/08 05:50:16;;;;;;;2.60;2.40;;;18.70;63.90;;;;;;6198478;22;20160;-80
2022/10/08 05:52:43;;;;;;;2.47;2.28;;;18.70;63.80;;;;;;6173720;22;20469;-81
2022/10/08 05:55:09;;;;;;;2.80;2.40;;;18.70;63.80;;;;;;6173720;22;20191;-79
2022/10/08 05:57:36;;;;;;;2.58;2.38;;;18.70;63.80;;;;;;6249564;22;20157;-81
2022/10/08 06:00:02;;;;;;;2.70;2.50;;;18.70;63.80;;;;;;6276806;22;20143;-82
2022/10/08 06:02:28;;;;;;;2.47;2.28;;;18.70;63.90;;;;;;6276705;22;20186;-81
2022/10/08 06:04:55;;;;;;;2.90;2.20;;;18.70;63.80;;;;;;6277033;22;20501;-81
2022/10/08 06:07:21;;;;;;;2.65;2.45;;;18.70;63.80;;;;;;6249502;22;20136;-79
2022/10/08 06:09:46;;;;;;;2.60;2.40;;;18.70;63.80;;;;;;6249664;22;20137;-80
2022/10/08 06:12:12;;;;;;;2.53;2.33;;;18.70;63.80;;;;;;6276546;22;20231;-80
2022/10/08 06:14:39;;;;;;;2.40;2.20;;;18.70;63.80;;;;;;6249342;22;20560;-80
2022/10/08 06:17:05;;;;;;;3.78;2.78;;;18.70;63.80;;;;;;6276555;22;20137;-81
2022/10/08 06:19:32;;;;;;;2.50;2.30;;;18.70;63.90;;;;;;6276630;22;20156;-80
2022/10/08 06:21:58;;;;;;;2.85;2.25;;;18.70;63.90;;;;;;6276441;22;20129;-79
2022/10/08 06:24:24;;;;;;;2.38;2.17;;;18.70;63.90;;;;;;6276659;22;20160;-79
2022/10/08 06:26:50;;;;;;;2.13;1.98;;;18.70;63.90;;;;;;6276477;22;20128;-80
2022/10/08 06:29:17;;;;;;;2.28;2.08;;;18.70;63.90;;;;;;6250057;22;20154;-81
2022/10/08 06:31:43;;;;;;;2.53;2.15;;;18.70;63.90;;;;;;6276613;22;20573;-81
2022/10/08 06:34:09;;;;;;;2.60;2.38;;;18.70;63.90;;;;;;6276618;22;20164;-81
2022/10/08 06:36:36;;;;;;;2.80;2.42;;;18.70;63.90;;;;;;6276732;22;20137;-80
2022/10/08 06:39:06;;;;;;;2.80;2.28;;;18.70;63.90;;;;;;6249886;22;20569;-81
2022/10/08 06:41:33;;;;;;;2.40;2.20;;;18.60;63.80;;;;;;6199439;22;20446;-80
2022/10/08 06:44:01;;;;;;;2.40;2.20;;;18.70;63.90;;;;;;6224391;22;20149;-80
2022/10/08 06:46:29;;;;;;;2.88;2.20;;;18.70;63.90;;;;;;6249897;22;20137;-79
2022/10/08 06:48:55;;;;;;;2.40;2.20;;;18.70;63.80;;;;;;6276374;22;20157;-80
2022/10/08 06:51:21;;;;;;;2.30;2.10;;;18.70;63.90;;;;;;6224301;22;20149;-79
2022/10/08 06:53:52;;;;;;;2.33;1.92;;;18.70;63.80;;;;;;6276309;22;20248;-80
2022/10/08 06:56:17;;;;;;;2.53;2.30;;;18.70;63.80;;;;;;6276285;22;20144;-81
2022/10/08 06:58:44;;;;;;;2.22;2.00;;;18.70;63.80;;;;;;6276457;22;20212;-81
2022/10/08 07:01:15;;;;;;;2.50;2.30;;;18.70;63.80;;;;;;6251504;22;20137;-81
2022/10/08 07:03:41;;;;;;;2.47;2.28;;;18.70;63.80;;;;;;6278225;22;20172;-79
2022/10/08 07:06:09;;;;;;;2.22;2.03;;;18.70;63.80;;;;;;6278717;22;20147;-81
2022/10/08 07:08:35;;;;;;;2.47;2.00;;;18.70;63.70;;;;;;6278734;22;20133;-80
2022/10/08 07:11:05;;;;;;;2.40;2.20;;;18.70;63.80;;;;;;6278295;22;20143;-81
2022/10/08 07:13:31;;;;;;;2.72;2.30;;;18.70;63.80;;;;;;6252648;22;20148;-80
2022/10/08 07:16:03;;;;;;;2.80;2.53;;;18.70;63.80;;;;;;6251740;22;20145;-80
2022/10/08 07:18:32;;;;;;;2.50;2.20;;;18.70;63.80;;;;;;6175900;22;20223;-81
2022/10/08 07:20:58;;;;;;;1.88;1.77;;;18.70;63.70;;;;;;6200689;22;20235;-81
2022/10/08 07:23:24;;;;;;;1.80;1.70;;;18.80;63.50;;;;;;6201049;22;20183;-79
2022/10/08 07:26:08;;;;;;;1.80;1.70;;;18.80;63.40;;;;;;6226137;22;20133;-79
2022/10/08 07:28:35;;;;;;;1.67;1.58;;;18.80;63.50;;;;;;6252044;22;20132;-80
2022/10/08 07:31:04;;;;;;;1.80;1.67;;;18.80;63.30;;;;;;6251399;22;20455;-79
2022/10/08 07:33:30;;;;;;;1.90;1.70;;;18.80;63.30;;;;;;6251267;22;20160;-80
2022/10/08 07:36:03;;;;;;;1.70;1.60;;;18.80;63.20;;;;;;6251851;22;20132;-80
2022/10/08 07:38:29;;;;;;;1.92;1.70;;;18.80;63.20;;;;;;6278370;22;20140;-81
2022/10/08 07:40:55;;;;;;;1.65;1.50;;;18.90;63.30;;;;;;6251082;22;20140;-80
2022/10/08 07:43:20;;;;;;;1.98;1.60;;;18.80;63.20;;;;;;6251302;22;20133;-81
2022/10/08 07:45:46;;;;;;;1.63;1.52;;;18.80;63.20;;;;;;6251421;22;20152;-79
2022/10/08 07:48:12;;;;;;;1.77;1.60;;;18.90;63.20;;;;;;6251002;22;20443;-80
2022/10/08 07:50:37;;;;;;;1.50;1.38;;;18.90;63.10;;;;;;6278297;22;20469;-80
2022/10/08 07:53:04;;;;;;;1.45;1.35;;;18.90;63.00;;;;;;6277893;22;20141;-80
2022/10/08 07:55:30;;;;;;;1.67;1.58;;;18.80;62.70;;;;;;6277858;22;20161;-80
2022/10/08 07:57:57;;;;;;;1.60;1.50;;;18.90;62.80;;;;;;6277909;22;20137;-80
2022/10/08 08:00:23;;;;;;;1.75;1.65;;;18.90;62.80;;;;;;6199924;22;20149;-80
2022/10/08 08:02:48;;;;;;;1.83;1.42;;;18.90;62.60;;;;;;6277797;22;20140;-80
2022/10/08 08:05:14;;;;;;;1.70;1.60;;;18.90;62.60;;;;;;6277663;22;20212;-80
2022/10/08 08:07:41;;;;;;;1.60;1.50;;;18.90;62.70;;;;;;6278311;22;20637;-80
2022/10/08 08:10:08;;;;;;;1.50;1.40;;;18.90;62.70;;;;;;6174408;22;20156;-80
2022/10/08 08:12:35;;;;;;;1.30;1.20;;;18.90;62.70;;;;;;6153841;23;20283;-80
2022/10/08 08:15:01;;;;;;;2.15;1.50;;;18.90;62.40;;;;;;6194292;23;20189;-80
2022/10/08 08:17:26;;;;;;;2.90;1.30;;;18.90;62.40;;;;;;6220300;23;20229;-81
2022/10/08 08:19:52;;;;;;;1.42;1.33;;;19.00;62.50;;;;;;6195474;23;20599;-79
2022/10/08 08:22:17;;;;;;;1.70;1.27;;;19.00;62.50;;;;;;6247177;23;20611;-80
2022/10/08 08:24:43;;;;;;;1.40;1.30;;;19.00;61.90;;;;;;6219995;23;20458;-80
2022/10/08 08:27:09;;;;;;;3.33;1.33;;;18.90;62.00;;;;;;6219838;23;20206;-80
2022/10/08 08:29:35;;;;;;;2.10;1.13;;;19.00;61.90;;;;;;6246981;23;20519;-80
2022/10/08 08:32:01;;;;;;;1.38;1.27;;;19.00;61.80;;;;;;6246679;23;20134;-80
2022/10/08 08:34:26;;;;;;;1.40;1.27;;;19.00;61.70;;;;;;6246797;23;20459;-80
2022/10/08 08:36:52;;;;;;;2.45;1.48;;;19.00;61.60;;;;;;6246490;23;20133;-81
2022/10/08 08:39:22;;;;;;;1.67;1.17;;;19.00;62.40;;;;;;6246783;23;20141;-80
2022/10/08 08:42:11;;;;;;;1.38;1.27;;;19.00;61.20;;;;;;6194833;23;20216;-79
2022/10/08 08:44:41;;;;;;;1.35;1.25;;;19.00;61.40;;;;;;6220056;23;20511;-80
2022/10/08 08:47:13;;;;;;;2.80;1.45;;;19.00;61.40;;;;;;6194926;23;20137;-80
2022/10/08 08:49:42;;;;;;;1.25;1.10;;;19.00;61.50;;;;;;6220239;23;20136;-80
2022/10/08 08:52:08;;;;;;;1.63;1.30;;;19.00;61.00;;;;;;6246293;23;20200;-80
2022/10/08 08:54:33;;;;;;;1.42;1.10;;;19.00;61.20;;;;;;6194753;23;20581;-80
2022/10/08 08:57:08;;;;;;;1.45;1.35;;;19.00;61.00;;;;;;6220496;23;20133;-79
2022/10/08 08:59:35;;;;;;;1.10;1.00;;;19.00;61.10;;;;;;6220745;23;20452;-80
2022/10/08 09:02:04;;;;;;;1.25;1.15;;;19.00;60.80;;;;;;6246205;23;20141;-81
2022/10/08 09:04:43;;;;;;;2.67;1.40;;;19.00;60.70;;;;;;6194807;23;20134;-81
2022/10/08 09:07:13;;;;;;;1.35;1.05;;;19.10;60.90;;;;;;6221471;23;20141;-81
2022/10/08 09:09:43;;;;;;;1.35;1.25;;;19.10;60.70;;;;;;6199266;23;20433;-81
2022/10/08 09:12:18;;;;;;;1.30;1.20;;;19.10;60.90;;;;;;6212946;22;20184;-81
2022/10/08 09:14:47;;;;;;;2.63;1.20;;;19.10;60.60;;;;;;6251776;22;20167;-80
2022/10/08 09:17:17;;;;;;;1.20;1.10;;;19.10;60.60;;;;;;6276787;22;20126;-79
2022/10/08 09:19:44;;;;;;;2.35;1.35;;;19.10;60.70;;;;;;6174447;22;20160;-81
2022/10/08 09:22:22;;;;;;;1.92;1.10;;;19.10;60.30;;;;;;6249496;22;20169;-80
2022/10/08 09:24:50;;;;;;;2.25;1.05;;;19.10;60.20;;;;;;6250748;22;20147;-80
2022/10/08 09:27:20;;;;;;;1.23;1.10;;;19.10;59.90;;;;;;6278211;22;20590;-80
2022/10/08 09:29:46;;;;;;;1.65;1.30;;;19.10;59.80;;;;;;6199941;22;20172;-82
2022/10/08 09:32:15;;;;;;;1.38;1.00;;;19.20;59.90;;;;;;6227079;22;20163;-81
2022/10/08 09:34:40;;;;;;;1.48;1.05;;;19.20;59.70;;;;;;6227861;22;20168;-80
2022/10/08 09:37:19;;;;;;;1.50;1.40;;;19.10;59.90;;;;;;6225896;22;20140;-80
2022/10/08 09:40:06;;;;;;;1.00;0.85;;;19.20;59.90;;;;;;6253307;22;20152;-81
2022/10/08 09:42:31;;;;;;;1.25;1.02;;;19.20;59.70;;;;;;6253894;22;20206;-80
2022/10/08 09:45:02;;;;;;;1.95;1.15;;;19.20;59.60;;;;;;6252158;22;20144;-80
2022/10/08 09:47:29;;;;;;;1.40;1.20;;;19.20;59.50;;;;;;6277727;22;20164;-80
2022/10/08 09:50:18;;;;;;;0.98;0.80;;;19.20;59.20;;;;;;6278128;22;20139;-81
2022/10/08 09:52:44;;;;;;;1.42;0.90;;;19.30;59.00;;;;;;6230455;22;20141;-80
2022/10/08 09:55:33;;;;;;;2.40;1.17;;;19.20;59.00;;;;;;6201212;22;20247;-81
2022/10/08 09:57:59;;;;;;;1.10;1.00;;;19.20;58.90;;;;;;6279092;22;20125;-81
2022/10/08 10:00:29;;;;;;;1.35;0.95;;;19.20;58.70;;;;;;6278319;22;20133;-82
2022/10/08 10:02:55;;;;;;;1.38;0.93;;;19.30;58.60;;;;;;6249378;22;20147;-80
2022/10/08 10:05:22;;;;;;;2.63;0.95;;;19.20;58.50;;;;;;6279095;22;20163;-80
2022/10/08 10:07:48;;;;;;;3.28;0.80;;;19.30;58.60;;;;;;6251013;22;20211;-80
2022/10/08 10:10:40;;;;;;;1.73;0.90;;;19.30;58.60;;;;;;6251376;22;20158;-81
2022/10/08 10:13:28;;;;;;;5.00;0.98;;;19.30;58.50;;;;;;6165795;22;20207;-81
2022/10/08 10:16:06;;;;;;;2.95;1.13;;;19.30;58.40;;;;;;6201231;22;20164;-79
2022/10/08 10:18:51;;;;;;;2.40;0.98;;;19.30;58.40;;;;;;6175818;22;20178;-81
2022/10/08 10:21:22;;;;;;;1.52;1.05;;;19.30;58.20;;;;;;6199652;22;20588;-80
2022/10/08 10:24:00;;;;;;;2.15;0.88;;;19.30;58.20;;;;;;6249753;22;20167;-81
2022/10/08 10:26:28;;;;;;;2.42;0.93;;;19.40;58.00;;;;;;6202273;22;20182;-81
2022/10/08 10:28:57;;;;;;;1.67;1.00;;;19.40;58.10;;;;;;6276596;22;20144;-81
2022/10/08 10:31:37;;;;;;;2.35;1.10;;;19.40;58.00;;;;;;6225375;22;20140;-81
2022/10/08 10:34:14;;;;;;;1.70;0.95;;;19.40;57.90;;;;;;6224794;22;20231;-81
2022/10/08 10:36:56;;;;;;;2.30;1.10;;;19.30;57.60;;;;;;6225398;22;20290;-81
2022/10/08 10:39:39;;;;;;;4.40;1.10;;;19.30;57.70;;;;;;6256277;22;20178;-82
2022/10/08 10:42:19;;;;;;;4.10;1.15;;;19.40;57.60;;;;;;6280703;22;20212;-81
2022/10/08 10:44:53;;;;;;;6.40;0.95;;;19.40;57.60;;;;;;6253740;22;20223;-79
2022/10/08 10:47:20;;;;;;;4.18;1.20;;;19.40;57.60;;;;;;6227008;22;20156;-80
2022/10/08 10:49:50;;;;;;;5.55;1.20;;;19.40;57.60;;;;;;6227203;22;20151;-81
2022/10/08 10:52:38;;;;;;;5.40;1.30;;;19.40;57.40;;;;;;6252653;22;20147;-81
2022/10/08 10:55:28;;;;;;;2.38;0.88;;;19.40;57.40;;;;;;6253970;22;20171;-80
2022/10/08 10:58:08;;;;;;;3.95;1.00;;;19.40;57.10;;;;;;6254146;22;20459;-81
2022/10/08 11:01:07;;;;;;;2.28;0.88;;;19.40;56.90;;;;;;6228955;22;20219;-80
2022/10/08 11:03:45;;;;;;;8.45;1.02;;;19.40;56.80;;;;;;6257461;22;20148;-81
2022/10/08 11:06:34;;;;;;;2.70;0.80;;;19.50;56.90;;;;;;6278553;22;20156;-80
2022/10/08 11:09:08;;;;;;;1.45;0.90;;;19.50;56.90;;;;;;6251993;22;20159;-80
2022/10/08 11:11:40;;;;;;;4.43;0.98;;;19.50;56.70;;;;;;6226371;22;20200;-81
2022/10/08 11:14:46;;;;;;;2.72;0.90;;;19.50;56.60;;;;;;6225993;22;20161;-80
2022/10/08 11:17:28;;;;;;;1.27;0.90;;;19.40;56.50;;;;;;6234476;22;20150;-80
2022/10/08 11:20:15;;;;;;;1.55;0.82;;;19.50;56.40;;;;;;6204403;22;20155;-81
2022/10/08 11:22:58;;;;;;;1.75;0.98;;;19.50;56.20;;;;;;6174327;22;20152;-80
2022/10/08 11:25:41;;;;;;;4.35;1.05;;;19.40;56.20;;;;;;6279255;22;20219;-80
2022/10/08 11:28:22;;;;;;;2.83;1.00;;;19.40;56.10;;;;;;6277861;22;20208;-81
2022/10/08 11:31:08;;;;;;;2.78;0.82;;;19.50;56.10;;;;;;6251281;22;20137;-81
2022/10/08 11:33:36;;;;;;;2.92;1.02;;;19.50;56.20;;;;;;6278099;22;20583;-81
2022/10/08 11:36:38;;;;;;;2.92;1.27;;;19.50;56.20;;;;;;6251707;22;20159;-80
2022/10/08 11:39:19;;;;;;;2.05;0.90;;;19.40;56.10;;;;;;6276436;22;20136;-81
2022/10/08 11:42:03;;;;;;;2.22;0.80;;;19.50;56.10;;;;;;6251032;22;20196;-80
2022/10/08 11:44:29;;;;;;;3.10;0.80;;;19.40;55.80;;;;;;6277726;22;20148;-81
2022/10/08 11:47:29;;;;;;;2.72;1.00;;;19.50;55.80;;;;;;6224877;22;20455;-81
2022/10/08 11:49:55;;;;;;;3.22;1.00;;;19.50;55.70;;;;;;6277555;22;20145;-81
2022/10/08 11:52:20;;;;;;;1.75;0.73;;;19.50;55.60;;;;;;6250631;22;20544;-80
2022/10/08 11:54:48;;;;;;;2.60;0.75;;;19.50;55.70;;;;;;6250658;22;20176;-81
2022/10/08 11:57:23;;;;;;;2.15;0.85;;;19.50;55.50;;;;;;6277829;22;20522;-80
2022/10/08 11:59:56;;;;;;;6.60;0.85;;;19.40;55.40;;;;;;6225918;22;20152;-82
2022/10/08 12:02:51;;;;;;;1.08;0.70;;;19.40;55.50;;;;;;6251335;22;20129;-82
2022/10/08 12:05:32;;;;;;;1.40;0.90;;;19.40;55.10;;;;;;6207845;22;20157;-81
2022/10/08 12:08:05;;;;;;;0.88;0.73;;;19.40;55.10;;;;;;6158957;22;20153;-81
2022/10/08 12:10:37;;;;;;;1.70;0.80;;;19.40;54.90;;;;;;6199979;22;20163;-81
2022/10/08 12:13:25;;;;;;;1.85;0.90;;;19.40;54.90;;;;;;6124463;23;20688;-82
2022/10/08 12:15:55;;;;;;;1.95;0.60;;;19.40;54.90;;;;;;6129252;23;20150;-82
2022/10/08 12:18:30;;;;;;;2.22;0.82;;;19.50;54.90;;;;;;6169813;23;20150;-80
2022/10/08 12:21:36;;;;;;;3.70;0.75;;;19.40;54.80;;;;;;6247598;23;20136;-80
2022/10/08 12:24:21;;;;;;;0.90;0.60;;;19.40;54.70;;;;;;6226444;23;20141;-80
2022/10/08 12:27:20;;;;;;;2.17;0.70;;;19.40;54.70;;;;;;6148722;23;20176;-82
2022/10/08 12:30:03;;;;;;;0.80;0.57;;;19.50;54.50;;;;;;6246829;23;20150;-80
2022/10/08 12:32:49;;;;;;;0.70;0.65;;;19.50;54.40;;;;;;6246925;23;20220;-81
2022/10/08 12:35:30;;;;;;;1.30;0.63;;;19.40;54.30;;;;;;6173618;23;20189;-81
2022/10/08 12:38:30;;;;;;;1.45;0.60;;;19.50;54.30;;;;;;6170253;23;20187;-82
2022/10/08 12:41:23;;;;;;;1.42;0.70;;;19.50;54.20;;;;;;6202484;23;20585;-80
2022/10/08 12:44:10;;;;;;;0.80;0.50;;;19.50;54.10;;;;;;6224439;23;20221;-81
2022/10/08 12:46:51;;;;;;;1.80;0.65;;;19.50;54.10;;;;;;6247110;23;20233;-82
2022/10/08 12:49:21;;;;;;;0.80;0.60;;;19.50;54.10;;;;;;6247115;23;20216;-80
2022/10/08 12:52:03;;;;;;;1.15;0.70;;;19.50;54.10;;;;;;6195396;23;20928;-80
2022/10/08 12:54:31;;;;;;;2.00;0.63;;;19.50;53.90;;;;;;6196055;23;20180;-81
2022/10/08 12:56:58;;;;;;;1.23;0.60;;;19.50;54.50;;;;;;6220773;23;20126;-81
2022/10/08 12:59:25;;;;;;;1.38;0.75;;;19.50;53.80;;;;;;6220775;23;20162;-80
2022/10/08 13:01:51;;;;;;;1.20;0.90;;;19.50;53.70;;;;;;6196712;23;20141;-82
2022/10/08 13:04:19;;;;;;;1.40;0.60;;;19.50;53.50;;;;;;6220900;23;20191;-81
2022/10/08 13:06:46;;;;;;;0.95;0.70;;;19.50;53.50;;;;;;6247389;23;20134;-81
2022/10/08 13:09:25;;;;;;;1.80;0.60;;;19.60;53.70;;;;;;6195363;23;20142;-81